Nanticoke — WDC4353 — position and weather

sailwx.info

Track history (hours):
 
Tides and Currents Weather Stations Pressure Air Temp Water Temp Dewpoint Dewpoint Depression Visibility Wind Speed Wind Dir Waves Ship Positions

Nanticoke

Owner: Vane Line Bunkering, Baltimore, MD. More information available from US FCC via Universal Licensing System and Coast Guard Vessel Documentation Center.

Last reported at 2015-May-26 07:33 UTC. Time now 2015-May-26 07:47 UTC.
Position N 40°40' W 074°02'.

Length 34 m; draft 4.7 m.

Type: Towing. MMSI: 367023480.

Date/timePositionNaut miles runAvg speedWind from/ knotsBaromVisibWave heightAir tempDewpointWater temp
2015-May-26 07:33N 40°40' W 074°02'0 0.0
2015-May-26 06:33N 40°40' W 074°02'0 0.0
2015-May-26 05:33N 40°40' W 074°02'0 0.0
2015-May-26 04:33N 40°40' W 074°02'0 0.2
2015-May-26 03:33N 40°40' W 074°02'0 0.1
2015-May-26 02:33N 40°40' W 074°02'0 0.0
2015-May-26 01:33N 40°40' W 074°02'0 0.0
2015-May-26 00:33N 40°40' W 074°02'0 0.1
2015-May-25 23:33N 40°40' W 074°02'0 0.2
2015-May-25 22:33N 40°40' W 074°02'0 0.1
2015-May-25 21:33N 40°40' W 074°02'0 0.1
2015-May-25 20:33N 40°40' W 074°02'0 0.0
2015-May-25 19:33N 40°40' W 074°02'0 0.0
2015-May-25 18:33N 40°40' W 074°02'0 0.0
2015-May-25 17:33N 40°40' W 074°02'0 0.2
2015-May-25 16:33N 40°40' W 074°02'0 0.1
2015-May-25 15:33N 40°40' W 074°02'0 0.0
2015-May-25 14:33N 40°40' W 074°02'0 0.0
2015-May-25 13:33N 40°40' W 074°02'0 0.0
2015-May-25 12:33N 40°40' W 074°02'0 0.0
2015-May-25 11:33N 40°40' W 074°02'0 0.0
2015-May-25 10:34N 40°40' W 074°02'4 4.2
2015-May-25 09:34N 40°39' W 074°08'4 3.7
2015-May-25 08:34N 40°38' W 074°12'0 0.3
2015-May-25 07:33N 40°38' W 074°12'0 0.0
2015-May-25 06:33N 40°38' W 074°12'0 0.0
2015-May-25 05:33N 40°38' W 074°12'0 0.0
2015-May-25 04:33N 40°38' W 074°12'0 0.0
2015-May-25 03:33N 40°38' W 074°12'0 0.0
2015-May-25 02:34N 40°38' W 074°12'0 0.0
2015-May-25 01:34N 40°38' W 074°12'0 0.0
2015-May-25 00:34N 40°38' W 074°12'0 0.0
2015-May-24 23:34N 40°38' W 074°12'0 0.0
2015-May-24 22:34N 40°38' W 074°12'0 0.0
2015-May-24 21:34N 40°38' W 074°12'0 0.0
2015-May-24 20:33N 40°38' W 074°12'0 0.0
2015-May-24 19:33N 40°38' W 074°12'0 0.0
2015-May-24 18:33N 40°38' W 074°12'0 0.0
2015-May-24 17:33N 40°38' W 074°12'0 0.0
2015-May-24 16:33N 40°38' W 074°12'0 0.0
2015-May-24 15:34N 40°38' W 074°12'0 0.0
2015-May-24 14:33N 40°38' W 074°12'0 0.3
2015-May-24 13:33N 40°38' W 074°12'7 7.5
2015-May-24 12:34N 40°40' W 074°03'0 0.3
2015-May-24 11:34N 40°40' W 074°03'0 0.0
2015-May-24 10:34N 40°40' W 074°03'0 0.0
2015-May-24 09:34N 40°40' W 074°03'0 0.0
2015-May-24 08:34N 40°40' W 074°03'0 0.2
2015-May-24 07:34N 40°40' W 074°02'0 0.0
2015-May-24 06:34N 40°40' W 074°02'0 0.0
2015-May-24 05:34N 40°40' W 074°02'0 0.0
2015-May-24 04:34N 40°40' W 074°02'0 0.0
2015-May-24 03:34N 40°40' W 074°02'0 0.0
2015-May-24 02:33N 40°40' W 074°03'0 0.1
2015-May-24 01:34N 40°40' W 074°03'0 0.2
2015-May-24 00:34N 40°40' W 074°03'0 0.0
2015-May-23 23:34N 40°40' W 074°03'0 0.1
2015-May-23 22:34N 40°40' W 074°03'0 0.1
2015-May-23 21:34N 40°40' W 074°03'0 0.1
2015-May-23 20:34N 40°40' W 074°02'0 0.1
2015-May-23 19:34N 40°40' W 074°02'0 0.0
2015-May-23 18:34N 40°40' W 074°02'0 0.0
2015-May-23 17:34N 40°40' W 074°02'0 0.0
2015-May-23 16:34N 40°40' W 074°02'0 0.0
2015-May-23 15:34N 40°40' W 074°02'0 0.1
2015-May-23 14:34N 40°40' W 074°02'0 0.0
2015-May-23 13:34N 40°40' W 074°03'0 0.0
2015-May-23 12:34N 40°40' W 074°03'0 0.0
2015-May-23 11:34N 40°40' W 074°03'0 0.0
2015-May-23 10:34N 40°40' W 074°03'0 0.0
2015-May-23 09:34N 40°40' W 074°03'0 0.0
2015-May-23 08:33N 40°40' W 074°02'0 0.0
2015-May-23 07:34N 40°40' W 074°02'0 0.0
2015-May-23 06:34N 40°40' W 074°02'0 0.0
2015-May-23 05:34N 40°40' W 074°02'0 0.0
2015-May-23 04:34N 40°40' W 074°02'0 0.0
2015-May-23 03:34N 40°40' W 074°02'0 0.0
2015-May-23 02:34N 40°40' W 074°02'0 0.0
2015-May-23 01:33N 40°40' W 074°02'0 0.0
2015-May-23 00:33N 40°40' W 074°02'0 0.1
2015-May-22 23:34N 40°40' W 074°02'0 0.0
2015-May-22 22:34N 40°40' W 074°02'0 0.0
2015-May-22 21:33N 40°40' W 074°02'0 0.0
2015-May-22 20:34N 40°40' W 074°02'0 0.0
2015-May-22 19:34N 40°40' W 074°02'0 0.1
2015-May-22 18:33N 40°40' W 074°02'0 0.0
2015-May-22 17:33N 40°40' W 074°02'3 2.7
2015-May-22 16:33N 40°39' W 074°06'0 0.3
2015-May-22 15:33N 40°39' W 074°06'0 0.1
2015-May-22 14:33N 40°39' W 074°06'5 4.7
2015-May-22 13:34N 40°40' W 074°00'0 0.0
2015-May-22 12:34N 40°40' W 074°00'0 0.1
2015-May-22 11:33N 40°40' W 074°00'0 0.0
2015-May-22 10:33N 40°40' W 074°00'0 0.0
2015-May-22 09:33N 40°40' W 074°00'0 0.0
2015-May-22 08:33N 40°40' W 074°00'0 0.0
2015-May-22 07:33N 40°40' W 074°00'0 0.0
2015-May-22 06:34N 40°40' W 074°00'0 0.0
2015-May-22 05:34N 40°40' W 074°00'5 4.6
2015-May-22 04:34N 40°39' W 074°06'3 2.9
2015-May-22 03:34N 40°40' W 074°02'0 0.0
2015-May-22 02:34N 40°40' W 074°02'0 0.0
2015-May-22 01:33N 40°40' W 074°02'0 0.0
2015-May-22 00:33N 40°40' W 074°02'0 0.2
2015-May-21 23:33N 40°40' W 074°03'0 0.1
2015-May-21 22:34N 40°40' W 074°02'0 0.0
2015-May-21 21:33N 40°40' W 074°03'0 0.0
2015-May-21 20:33N 40°40' W 074°03'0 0.0
2015-May-21 19:34N 40°40' W 074°03'0 0.1
2015-May-21 18:34N 40°40' W 074°03'0 0.2
2015-May-21 17:33N 40°40' W 074°02'0 0.0
2015-May-21 16:33N 40°40' W 074°02'0 0.0
2015-May-21 15:33N 40°40' W 074°02'0 0.0
2015-May-21 14:33N 40°40' W 074°02'0 0.1
2015-May-21 13:33N 40°40' W 074°03'0 0.2
2015-May-21 12:33N 40°40' W 074°03'0 0.0
2015-May-21 11:33N 40°40' W 074°03'0 0.0
2015-May-21 10:33N 40°40' W 074°03'0 0.1
2015-May-21 09:33N 40°40' W 074°03'2 1.9
2015-May-21 08:34N 40°39' W 074°05'0 0.1
2015-May-21 07:34N 40°39' W 074°05'0 0.0
2015-May-21 06:33N 40°39' W 074°05'0 0.0
2015-May-21 05:33N 40°39' W 074°05'0 0.0
2015-May-21 04:33N 40°39' W 074°05'0 0.0
2015-May-21 03:33N 40°39' W 074°05'0 0.0
2015-May-21 02:33N 40°39' W 074°05'0 0.0
2015-May-21 01:33N 40°39' W 074°05'0 0.0
2015-May-21 00:33N 40°39' W 074°05'1 1.1
2015-May-20 23:33N 40°39' W 074°06'4 4.3
2015-May-20 22:33N 40°40' W 074°01'0 0.4
2015-May-20 21:33N 40°40' W 074°00'0 0.0
2015-May-20 20:34N 40°40' W 074°00'0 0.0
2015-May-20 19:33N 40°40' W 074°00'0 0.0
2015-May-20 18:33N 40°40' W 074°00'0 0.0
2015-May-20 17:33N 40°40' W 074°00'0 0.0
2015-May-20 16:34N 40°40' W 074°00'0 0.3
2015-May-20 15:33N 40°40' W 074°00'0 0.0
2015-May-20 14:33N 40°40' W 074°00'0 0.3
2015-May-20 13:34N 40°40' W 074°00'0 0.0
2015-May-20 12:34N 40°40' W 074°00'0 0.0
2015-May-20 11:34N 40°40' W 074°00'0 0.0
2015-May-20 10:34N 40°40' W 074°00'4 3.5
2015-May-20 09:33N 40°39' W 074°05'2 2.2
2015-May-20 08:34N 40°40' W 074°02'0 0.0
2015-May-20 07:34N 40°40' W 074°02'0 0.0
2015-May-20 06:34N 40°40' W 074°02'0 0.0
2015-May-20 05:33N 40°40' W 074°02'0 0.0
2015-May-20 04:34N 40°40' W 074°02'0 0.0
2015-May-20 03:34N 40°40' W 074°02'0 0.2
2015-May-20 02:34N 40°40' W 074°02'0 0.0
2015-May-20 01:34N 40°40' W 074°02'0 0.0
2015-May-20 00:34N 40°40' W 074°02'0 0.0
2015-May-19 23:34N 40°40' W 074°02'0 0.0
2015-May-19 22:34N 40°40' W 074°02'0 0.1
2015-May-19 21:33N 40°40' W 074°02'0 0.1
2015-May-19 20:33N 40°40' W 074°02'0 0.0
2015-May-19 19:34N 40°40' W 074°02'0 0.0
2015-May-19 18:33N 40°40' W 074°02'0 0.0
2015-May-19 17:33N 40°40' W 074°02'0 0.0
2015-May-19 16:34N 40°40' W 074°02'0 0.2
2015-May-19 15:34N 40°40' W 074°02'0 0.0
2015-May-19 14:34N 40°40' W 074°02'0 0.0
2015-May-19 13:33N 40°40' W 074°02'0 0.0
2015-May-19 12:34N 40°40' W 074°02'0 0.0
2015-May-19 11:33N 40°40' W 074°02'0 0.1
2015-May-19 10:33N 40°40' W 074°02'0 0.1
2015-May-19 09:33N 40°40' W 074°02'0 0.0
2015-May-19 08:33N 40°40' W 074°02'0 0.0
2015-May-19 07:34N 40°40' W 074°02'0 0.0
2015-May-19 06:34N 40°40' W 074°02'0 0.0
2015-May-19 05:34N 40°40' W 074°02'0 0.0
2015-May-19 04:33N 40°40' W 074°02'0 0.1
2015-May-19 03:33N 40°40' W 074°02'0 0.1
2015-May-19 02:33N 40°40' W 074°02'0 0.0
2015-May-19 01:33N 40°40' W 074°02'0 0.0
2015-May-19 00:33N 40°40' W 074°02'0 0.0
2015-May-18 23:34N 40°40' W 074°02'0 0.1
2015-May-18 22:33N 40°40' W 074°02'0 0.1
2015-May-18 21:33N 40°40' W 074°02'0 0.1
2015-May-18 20:34N 40°40' W 074°02'0 0.0
2015-May-18 19:33N 40°40' W 074°02'1 0.7
2015-May-18 18:33N 40°39' W 074°03'2 2.0
2015-May-18 17:33N 40°40' W 074°00'2 1.7
2015-May-18 16:33N 40°40' W 074°02'0 0.0
2015-May-18 15:33N 40°40' W 074°02'0 0.1
2015-May-18 14:33N 40°40' W 074°02'0 0.0
2015-May-18 13:33N 40°40' W 074°02'0 0.0
2015-May-18 12:33N 40°40' W 074°02'0 0.1
2015-May-18 11:33N 40°40' W 074°02'0 0.0
2015-May-18 10:33N 40°40' W 074°02'0 0.0
2015-May-18 09:33N 40°40' W 074°02'0 0.0
2015-May-18 08:33N 40°40' W 074°02'0 0.0
2015-May-18 07:33N 40°40' W 074°02'1 1.5
2015-May-18 06:33N 40°39' W 074°04'2 2.2
2015-May-18 05:33N 40°40' W 074°01'1 0.7
2015-May-18 04:33N 40°40' W 074°00'0 0.0
2015-May-18 03:33N 40°40' W 074°00'0 0.0
2015-May-18 02:33N 40°40' W 074°00'0 0.0
2015-May-18 01:33N 40°40' W 074°00'0 0.0
2015-May-18 00:33N 40°40' W 074°00'0 0.0
2015-May-17 23:33N 40°40' W 074°00'0 0.0
2015-May-17 22:33N 40°40' W 074°00'0 0.0
2015-May-17 21:33N 40°40' W 074°00'0 0.0
2015-May-17 20:33N 40°40' W 074°00'0 0.0
2015-May-17 19:33N 40°40' W 074°00'0 0.0
2015-May-17 18:33N 40°40' W 074°00'0 0.0
2015-May-17 17:33N 40°40' W 074°00'0 0.0
2015-May-17 16:33N 40°40' W 074°00'2 1.9
2015-May-17 15:33N 40°39' W 074°02'3 3.5
2015-May-17 14:33N 40°39' W 074°07'4 4.1
2015-May-17 13:33N 40°38' W 074°12'0 0.0
2015-May-17 12:33N 40°38' W 074°12'0 0.0
2015-May-17 11:33N 40°38' W 074°12'0 0.0
2015-May-17 10:33N 40°38' W 074°12'0 0.0
2015-May-17 09:34N 40°38' W 074°12'2 1.5
2015-May-17 08:33N 40°36' W 074°12'1 0.0
2015-May-16 14:05N 40°35' W 074°12'2 4.3
2015-May-16 13:33N 40°38' W 074°12'5 4.6
2015-May-16 12:33N 40°39' W 074°06'3 3.0
2015-May-16 11:33N 40°39' W 074°02'0 0.0
2015-May-16 10:33N 40°39' W 074°03'0 0.1
2015-May-16 09:33N 40°39' W 074°02'0 0.0
2015-May-16 08:33N 40°39' W 074°02'  
Track history (hours):
 
Tides and Currents Weather Stations Pressure Air Temp Water Temp Dewpoint Dewpoint Depression Visibility Wind Speed Wind Dir Waves Ship Positions

Nanticoke

Owner: Vane Line Bunkering, Baltimore, MD. More information available from US FCC via Universal Licensing System and Coast Guard Vessel Documentation Center.

Last reported at 2015-May-26 07:33 UTC. Time now 2015-May-26 07:47 UTC.
Position N 40°40' W 074°02'.

Length 34 m; draft 4.7 m.

Type: Towing. MMSI: 367023480.

Date/timePositionNaut miles runAvg speedWind from/ knotsBaromVisibWave heightAir tempDewpointWater temp
2015-May-26 07:33N 40°40' W 074°02'0 0.0
2015-May-26 06:33N 40°40' W 074°02'0 0.0
2015-May-26 05:33N 40°40' W 074°02'0 0.0
2015-May-26 04:33N 40°40' W 074°02'0 0.2
2015-May-26 03:33N 40°40' W 074°02'0 0.1
2015-May-26 02:33N 40°40' W 074°02'0 0.0
2015-May-26 01:33N 40°40' W 074°02'0 0.0
2015-May-26 00:33N 40°40' W 074°02'0 0.1
2015-May-25 23:33N 40°40' W 074°02'0 0.2
2015-May-25 22:33N 40°40' W 074°02'0 0.1
2015-May-25 21:33N 40°40' W 074°02'0 0.1
2015-May-25 20:33N 40°40' W 074°02'0 0.0
2015-May-25 19:33N 40°40' W 074°02'0 0.0
2015-May-25 18:33N 40°40' W 074°02'0 0.0
2015-May-25 17:33N 40°40' W 074°02'0 0.2
2015-May-25 16:33N 40°40' W 074°02'0 0.1
2015-May-25 15:33N 40°40' W 074°02'0 0.0
2015-May-25 14:33N 40°40' W 074°02'0 0.0
2015-May-25 13:33N 40°40' W 074°02'0 0.0
2015-May-25 12:33N 40°40' W 074°02'0 0.0
2015-May-25 11:33N 40°40' W 074°02'0 0.0
2015-May-25 10:34N 40°40' W 074°02'4 4.2
2015-May-25 09:34N 40°39' W 074°08'4 3.7
2015-May-25 08:34N 40°38' W 074°12'0 0.3
2015-May-25 07:33N 40°38' W 074°12'0 0.0
2015-May-25 06:33N 40°38' W 074°12'0 0.0
2015-May-25 05:33N 40°38' W 074°12'0 0.0
2015-May-25 04:33N 40°38' W 074°12'0 0.0
2015-May-25 03:33N 40°38' W 074°12'0 0.0
2015-May-25 02:34N 40°38' W 074°12'0 0.0
2015-May-25 01:34N 40°38' W 074°12'0 0.0
2015-May-25 00:34N 40°38' W 074°12'0 0.0
2015-May-24 23:34N 40°38' W 074°12'0 0.0
2015-May-24 22:34N 40°38' W 074°12'0 0.0
2015-May-24 21:34N 40°38' W 074°12'0 0.0
2015-May-24 20:33N 40°38' W 074°12'0 0.0
2015-May-24 19:33N 40°38' W 074°12'0 0.0
2015-May-24 18:33N 40°38' W 074°12'0 0.0
2015-May-24 17:33N 40°38' W 074°12'0 0.0
2015-May-24 16:33N 40°38' W 074°12'0 0.0
2015-May-24 15:34N 40°38' W 074°12'0 0.0
2015-May-24 14:33N 40°38' W 074°12'0 0.3
2015-May-24 13:33N 40°38' W 074°12'7 7.5
2015-May-24 12:34N 40°40' W 074°03'0 0.3
2015-May-24 11:34N 40°40' W 074°03'0 0.0
2015-May-24 10:34N 40°40' W 074°03'0 0.0
2015-May-24 09:34N 40°40' W 074°03'0 0.0
2015-May-24 08:34N 40°40' W 074°03'0 0.2
2015-May-24 07:34N 40°40' W 074°02'0 0.0
2015-May-24 06:34N 40°40' W 074°02'0 0.0
2015-May-24 05:34N 40°40' W 074°02'0 0.0
2015-May-24 04:34N 40°40' W 074°02'0 0.0
2015-May-24 03:34N 40°40' W 074°02'0 0.0
2015-May-24 02:33N 40°40' W 074°03'0 0.1
2015-May-24 01:34N 40°40' W 074°03'0 0.2
2015-May-24 00:34N 40°40' W 074°03'0 0.0
2015-May-23 23:34N 40°40' W 074°03'0 0.1
2015-May-23 22:34N 40°40' W 074°03'0 0.1
2015-May-23 21:34N 40°40' W 074°03'0 0.1
2015-May-23 20:34N 40°40' W 074°02'0 0.1
2015-May-23 19:34N 40°40' W 074°02'0 0.0
2015-May-23 18:34N 40°40' W 074°02'0 0.0
2015-May-23 17:34N 40°40' W 074°02'0 0.0
2015-May-23 16:34N 40°40' W 074°02'0 0.0
2015-May-23 15:34N 40°40' W 074°02'0 0.1
2015-May-23 14:34N 40°40' W 074°02'0 0.0
2015-May-23 13:34N 40°40' W 074°03'0 0.0
2015-May-23 12:34N 40°40' W 074°03'0 0.0
2015-May-23 11:34N 40°40' W 074°03'0 0.0
2015-May-23 10:34N 40°40' W 074°03'0 0.0
2015-May-23 09:34N 40°40' W 074°03'0 0.0
2015-May-23 08:33N 40°40' W 074°02'0 0.0
2015-May-23 07:34N 40°40' W 074°02'0 0.0
2015-May-23 06:34N 40°40' W 074°02'0 0.0
2015-May-23 05:34N 40°40' W 074°02'0 0.0
2015-May-23 04:34N 40°40' W 074°02'0 0.0
2015-May-23 03:34N 40°40' W 074°02'0 0.0
2015-May-23 02:34N 40°40' W 074°02'0 0.0
2015-May-23 01:33N 40°40' W 074°02'0 0.0
2015-May-23 00:33N 40°40' W 074°02'0 0.1
2015-May-22 23:34N 40°40' W 074°02'0 0.0
2015-May-22 22:34N 40°40' W 074°02'0 0.0
2015-May-22 21:33N 40°40' W 074°02'0 0.0
2015-May-22 20:34N 40°40' W 074°02'0 0.0
2015-May-22 19:34N 40°40' W 074°02'0 0.1
2015-May-22 18:33N 40°40' W 074°02'0 0.0
2015-May-22 17:33N 40°40' W 074°02'3 2.7
2015-May-22 16:33N 40°39' W 074°06'0 0.3
2015-May-22 15:33N 40°39' W 074°06'0 0.1
2015-May-22 14:33N 40°39' W 074°06'5 4.7
2015-May-22 13:34N 40°40' W 074°00'0 0.0
2015-May-22 12:34N 40°40' W 074°00'0 0.1
2015-May-22 11:33N 40°40' W 074°00'0 0.0
2015-May-22 10:33N 40°40' W 074°00'0 0.0
2015-May-22 09:33N 40°40' W 074°00'0 0.0
2015-May-22 08:33N 40°40' W 074°00'0 0.0
2015-May-22 07:33N 40°40' W 074°00'0 0.0
2015-May-22 06:34N 40°40' W 074°00'0 0.0
2015-May-22 05:34N 40°40' W 074°00'5 4.6
2015-May-22 04:34N 40°39' W 074°06'3 2.9
2015-May-22 03:34N 40°40' W 074°02'0 0.0
2015-May-22 02:34N 40°40' W 074°02'0 0.0
2015-May-22 01:33N 40°40' W 074°02'0 0.0
2015-May-22 00:33N 40°40' W 074°02'0 0.2
2015-May-21 23:33N 40°40' W 074°03'0 0.1
2015-May-21 22:34N 40°40' W 074°02'0 0.0
2015-May-21 21:33N 40°40' W 074°03'0 0.0
2015-May-21 20:33N 40°40' W 074°03'0 0.0
2015-May-21 19:34N 40°40' W 074°03'0 0.1
2015-May-21 18:34N 40°40' W 074°03'0 0.2
2015-May-21 17:33N 40°40' W 074°02'0 0.0
2015-May-21 16:33N 40°40' W 074°02'0 0.0
2015-May-21 15:33N 40°40' W 074°02'0 0.0
2015-May-21 14:33N 40°40' W 074°02'0 0.1
2015-May-21 13:33N 40°40' W 074°03'0 0.2
2015-May-21 12:33N 40°40' W 074°03'0 0.0
2015-May-21 11:33N 40°40' W 074°03'0 0.0
2015-May-21 10:33N 40°40' W 074°03'0 0.1
2015-May-21 09:33N 40°40' W 074°03'2 1.9
2015-May-21 08:34N 40°39' W 074°05'0 0.1
2015-May-21 07:34N 40°39' W 074°05'0 0.0
2015-May-21 06:33N 40°39' W 074°05'0 0.0
2015-May-21 05:33N 40°39' W 074°05'0 0.0
2015-May-21 04:33N 40°39' W 074°05'0 0.0
2015-May-21 03:33N 40°39' W 074°05'0 0.0
2015-May-21 02:33N 40°39' W 074°05'0 0.0
2015-May-21 01:33N 40°39' W 074°05'0 0.0
2015-May-21 00:33N 40°39' W 074°05'1 1.1
2015-May-20 23:33N 40°39' W 074°06'4 4.3
2015-May-20 22:33N 40°40' W 074°01'0 0.4
2015-May-20 21:33N 40°40' W 074°00'0 0.0
2015-May-20 20:34N 40°40' W 074°00'0 0.0
2015-May-20 19:33N 40°40' W 074°00'0 0.0
2015-May-20 18:33N 40°40' W 074°00'0 0.0
2015-May-20 17:33N 40°40' W 074°00'0 0.0
2015-May-20 16:34N 40°40' W 074°00'0 0.3
2015-May-20 15:33N 40°40' W 074°00'0 0.0
2015-May-20 14:33N 40°40' W 074°00'0 0.3
2015-May-20 13:34N 40°40' W 074°00'0 0.0
2015-May-20 12:34N 40°40' W 074°00'0 0.0
2015-May-20 11:34N 40°40' W 074°00'0 0.0
2015-May-20 10:34N 40°40' W 074°00'4 3.5
2015-May-20 09:33N 40°39' W 074°05'2 2.2
2015-May-20 08:34N 40°40' W 074°02'0 0.0
2015-May-20 07:34N 40°40' W 074°02'0 0.0
2015-May-20 06:34N 40°40' W 074°02'0 0.0
2015-May-20 05:33N 40°40' W 074°02'0 0.0
2015-May-20 04:34N 40°40' W 074°02'0 0.0
2015-May-20 03:34N 40°40' W 074°02'0 0.2
2015-May-20 02:34N 40°40' W 074°02'0 0.0
2015-May-20 01:34N 40°40' W 074°02'0 0.0
2015-May-20 00:34N 40°40' W 074°02'0 0.0
2015-May-19 23:34N 40°40' W 074°02'0 0.0
2015-May-19 22:34N 40°40' W 074°02'0 0.1
2015-May-19 21:33N 40°40' W 074°02'0 0.1
2015-May-19 20:33N 40°40' W 074°02'0 0.0
2015-May-19 19:34N 40°40' W 074°02'0 0.0
2015-May-19 18:33N 40°40' W 074°02'0 0.0
2015-May-19 17:33N 40°40' W 074°02'0 0.0
2015-May-19 16:34N 40°40' W 074°02'0 0.2
2015-May-19 15:34N 40°40' W 074°02'0 0.0
2015-May-19 14:34N 40°40' W 074°02'0 0.0
2015-May-19 13:33N 40°40' W 074°02'0 0.0
2015-May-19 12:34N 40°40' W 074°02'0 0.0
2015-May-19 11:33N 40°40' W 074°02'0 0.1
2015-May-19 10:33N 40°40' W 074°02'0 0.1
2015-May-19 09:33N 40°40' W 074°02'0 0.0
2015-May-19 08:33N 40°40' W 074°02'0 0.0
2015-May-19 07:34N 40°40' W 074°02'0 0.0
2015-May-19 06:34N 40°40' W 074°02'0 0.0
2015-May-19 05:34N 40°40' W 074°02'0 0.0
2015-May-19 04:33N 40°40' W 074°02'0 0.1
2015-May-19 03:33N 40°40' W 074°02'0 0.1
2015-May-19 02:33N 40°40' W 074°02'0 0.0
2015-May-19 01:33N 40°40' W 074°02'0 0.0
2015-May-19 00:33N 40°40' W 074°02'0 0.0
2015-May-18 23:34N 40°40' W 074°02'0 0.1
2015-May-18 22:33N 40°40' W 074°02'0 0.1
2015-May-18 21:33N 40°40' W 074°02'0 0.1
2015-May-18 20:34N 40°40' W 074°02'0 0.0
2015-May-18 19:33N 40°40' W 074°02'1 0.7
2015-May-18 18:33N 40°39' W 074°03'2 2.0
2015-May-18 17:33N 40°40' W 074°00'2 1.7
2015-May-18 16:33N 40°40' W 074°02'0 0.0
2015-May-18 15:33N 40°40' W 074°02'0 0.1
2015-May-18 14:33N 40°40' W 074°02'0 0.0
2015-May-18 13:33N 40°40' W 074°02'0 0.0
2015-May-18 12:33N 40°40' W 074°02'0 0.1
2015-May-18 11:33N 40°40' W 074°02'0 0.0
2015-May-18 10:33N 40°40' W 074°02'0 0.0
2015-May-18 09:33N 40°40' W 074°02'0 0.0
2015-May-18 08:33N 40°40' W 074°02'0 0.0
2015-May-18 07:33N 40°40' W 074°02'1 1.5
2015-May-18 06:33N 40°39' W 074°04'2 2.2
2015-May-18 05:33N 40°40' W 074°01'1 0.7
2015-May-18 04:33N 40°40' W 074°00'0 0.0
2015-May-18 03:33N 40°40' W 074°00'0 0.0
2015-May-18 02:33N 40°40' W 074°00'0 0.0
2015-May-18 01:33N 40°40' W 074°00'0 0.0
2015-May-18 00:33N 40°40' W 074°00'0 0.0
2015-May-17 23:33N 40°40' W 074°00'0 0.0
2015-May-17 22:33N 40°40' W 074°00'0 0.0
2015-May-17 21:33N 40°40' W 074°00'0 0.0
2015-May-17 20:33N 40°40' W 074°00'0 0.0
2015-May-17 19:33N 40°40' W 074°00'0 0.0
2015-May-17 18:33N 40°40' W 074°00'0 0.0
2015-May-17 17:33N 40°40' W 074°00'0 0.0
2015-May-17 16:33N 40°40' W 074°00'2 1.9
2015-May-17 15:33N 40°39' W 074°02'3 3.5
2015-May-17 14:33N 40°39' W 074°07'4 4.1
2015-May-17 13:33N 40°38' W 074°12'0 0.0
2015-May-17 12:33N 40°38' W 074°12'0 0.0
2015-May-17 11:33N 40°38' W 074°12'0 0.0
2015-May-17 10:33N 40°38' W 074°12'0 0.0
2015-May-17 09:34N 40°38' W 074°12'2 1.5
2015-May-17 08:33N 40°36' W 074°12'1 0.0
2015-May-16 14:05N 40°35' W 074°12'2 4.3
2015-May-16 13:33N 40°38' W 074°12'5 4.6
2015-May-16 12:33N 40°39' W 074°06'3 3.0
2015-May-16 11:33N 40°39' W 074°02'0 0.0
2015-May-16 10:33N 40°39' W 074°03'0 0.1
2015-May-16 09:33N 40°39' W 074°02'0 0.0
2015-May-16 08:33N 40°39' W 074°02'  

Dump ship's entire track history